This is the latest recevied weather packets stored in our database for station/object IZ2WMD-13. If no packets are shown the sender has not sent any weather packets the latest 1 day(s).
| Time | Temp. | Humidity | Pressure | Rain* | Wind** | Luminosity | Snow |
|---|---|---|---|---|---|---|---|
| 1777781236 | 7.78° C | 79% | 1018.8 hPa | - | - | - | - |
| 1777780031 | 8.33° C | 75% | 1018.8 hPa | - | - | - | - |
| 1777778826 | 8.33° C | 78% | 1018.7 hPa | - | - | - | - |
| 1777777621 | 8.89° C | 74% | 1018.7 hPa | - | - | - | - |
| 1777776417 | 9.44° C | 68% | 1018.7 hPa | - | - | - | - |
| 1777775212 | 8.89° C | 75% | 1018.8 hPa | - | - | - | - |
| 1777774007 | 9.44° C | 74% | 1019 hPa | - | - | - | - |
| 1777772802 | 9.44° C | 73% | 1019 hPa | - | - | - | - |
| 1777771598 | 10° C | 68% | 1019 hPa | - | - | - | - |
| 1777770393 | 10° C | 72% | 1019.1 hPa | - | - | - | - |
| 1777769188 | 10° C | 70% | 1019.3 hPa | - | - | - | - |
| 1777767983 | 10.56° C | 69% | 1019.4 hPa | - | - | - | - |
| 1777766778 | 11.11° C | 65% | 1019.6 hPa | - | - | - | - |
| 1777765574 | 11.67° C | 62% | 1019.6 hPa | - | - | - | - |
| 1777763164 | 11.67° C | 65% | 1019.9 hPa | - | - | - | - |
| 1777761959 | 12.22° C | 60% | 1019.8 hPa | - | - | - | - |
| 1777760754 | 12.22° C | 62% | 1019.9 hPa | - | - | - | - |
| 1777759550 | 12.22° C | 59% | 1020 hPa | - | - | - | - |
| 1777758345 | 12.22° C | 63% | 1019.9 hPa | - | - | - | - |
| 1777757140 | 13.33° C | 59% | 1019.8 hPa | - | - | - | - |
| 1777753525 | 14.44° C | 58% | 1019.8 hPa | - | - | - | - |
| 1777752320 | 15° C | 54% | 1019.7 hPa | - | - | - | - |
| 1777751116 | 15° C | 55% | 1019.7 hPa | - | - | - | - |
| 1777749911 | 16.11° C | 51% | 1019.5 hPa | - | - | - | - |
| 1777748706 | 16.67° C | 49% | 1019.3 hPa | - | - | - | - |
* Rain since midnight (hover to see other rain measurements)
** Current wind speed in m/s (hover to see current wind gust speed)